sensor_id;sensor_type;location;lat;lon;timestamp;P1;durP1;ratioP1;P2;durP2;ratioP2
8550;SDS011;4313;42.000;21.380;2023-04-21T00:01:54;11.90;;;10.50;;
8550;SDS011;4313;42.000;21.380;2023-04-21T00:04:23;11.83;;;10.30;;
8550;SDS011;4313;42.000;21.380;2023-04-21T00:07:11;14.37;;;10.63;;
8550;SDS011;4313;42.000;21.380;2023-04-21T00:09:40;12.17;;;10.87;;
8550;SDS011;4313;42.000;21.380;2023-04-21T00:12:07;12.87;;;10.33;;
8550;SDS011;4313;42.000;21.380;2023-04-21T00:14:34;12.00;;;9.93;;
8550;SDS011;4313;42.000;21.380;2023-04-21T00:17:01;11.57;;;10.23;;
8550;SDS011;4313;42.000;21.380;2023-04-21T00:19:31;12.17;;;10.57;;
8550;SDS011;4313;42.000;21.380;2023-04-21T00:21:59;12.67;;;10.10;;
8550;SDS011;4313;42.000;21.380;2023-04-21T00:24:27;10.97;;;9.00;;
8550;SDS011;4313;42.000;21.380;2023-04-21T00:26:56;11.40;;;10.03;;
8550;SDS011;4313;42.000;21.380;2023-04-21T00:29:23;12.37;;;10.70;;
8550;SDS011;4313;42.000;21.380;2023-04-21T00:31:50;12.17;;;10.77;;
8550;SDS011;4313;42.000;21.380;2023-04-21T00:34:17;13.57;;;9.93;;
8550;SDS011;4313;42.000;21.380;2023-04-21T00:36:44;13.17;;;10.40;;
8550;SDS011;4313;42.000;21.380;2023-04-21T00:39:30;10.53;;;9.37;;
8550;SDS011;4313;42.000;21.380;2023-04-21T00:41:58;11.60;;;9.67;;
8550;SDS011;4313;42.000;21.380;2023-04-21T00:44:26;11.20;;;9.37;;
8550;SDS011;4313;42.000;21.380;2023-04-21T00:46:53;11.13;;;9.40;;
8550;SDS011;4313;42.000;21.380;2023-04-21T00:49:21;11.07;;;9.53;;
8550;SDS011;4313;42.000;21.380;2023-04-21T00:51:49;10.57;;;9.47;;
8550;SDS011;4313;42.000;21.380;2023-04-21T00:54:16;11.43;;;9.80;;
8550;SDS011;4313;42.000;21.380;2023-04-21T00:57:04;12.83;;;9.50;;
8550;SDS011;4313;42.000;21.380;2023-04-21T00:59:32;9.53;;;8.60;;
8550;SDS011;4313;42.000;21.380;2023-04-21T01:02:01;9.97;;;8.73;;
8550;SDS011;4313;42.000;21.380;2023-04-21T01:04:28;10.60;;;8.90;;
8550;SDS011;4313;42.000;21.380;2023-04-21T01:07:02;11.63;;;9.30;;
8550;SDS011;4313;42.000;21.380;2023-04-21T01:09:31;9.67;;;8.30;;
8550;SDS011;4313;42.000;21.380;2023-04-21T01:12:01;10.30;;;9.20;;
8550;SDS011;4313;42.000;21.380;2023-04-21T01:14:30;9.93;;;8.93;;
8550;SDS011;4313;42.000;21.380;2023-04-21T01:16:58;9.60;;;8.57;;
8550;SDS011;4313;42.000;21.380;2023-04-21T01:19:44;13.40;;;9.17;;
8550;SDS011;4313;42.000;21.380;2023-04-21T01:22:13;11.57;;;9.13;;
8550;SDS011;4313;42.000;21.380;2023-04-21T01:24:42;11.17;;;9.60;;
8550;SDS011;4313;42.000;21.380;2023-04-21T01:27:13;10.13;;;9.03;;
8550;SDS011;4313;42.000;21.380;2023-04-21T01:29:41;10.53;;;9.17;;
8550;SDS011;4313;42.000;21.380;2023-04-21T01:32:11;11.10;;;8.47;;
8550;SDS011;4313;42.000;21.380;2023-04-21T01:34:40;11.13;;;9.57;;
8550;SDS011;4313;42.000;21.380;2023-04-21T01:37:09;10.80;;;9.30;;
8550;SDS011;4313;42.000;21.380;2023-04-21T01:39:38;10.47;;;9.17;;
8550;SDS011;4313;42.000;21.380;2023-04-21T01:42:06;10.67;;;9.50;;
8550;SDS011;4313;42.000;21.380;2023-04-21T01:44:34;11.13;;;9.70;;
8550;SDS011;4313;42.000;21.380;2023-04-21T01:47:02;12.20;;;9.47;;
8550;SDS011;4313;42.000;21.380;2023-04-21T01:49:29;16.23;;;10.10;;
8550;SDS011;4313;42.000;21.380;2023-04-21T01:51:56;18.67;;;12.20;;
8550;SDS011;4313;42.000;21.380;2023-04-21T01:54:23;17.07;;;13.00;;
8550;SDS011;4313;42.000;21.380;2023-04-21T01:56:52;14.17;;;11.60;;
8550;SDS011;4313;42.000;21.380;2023-04-21T01:59:20;13.67;;;11.80;;
8550;SDS011;4313;42.000;21.380;2023-04-21T02:01:47;12.03;;;9.80;;
8550;SDS011;4313;42.000;21.380;2023-04-21T02:04:14;12.97;;;9.70;;
8550;SDS011;4313;42.000;21.380;2023-04-21T02:06:42;11.77;;;10.20;;
8550;SDS011;4313;42.000;21.380;2023-04-21T02:09:09;11.83;;;10.07;;
8550;SDS011;4313;42.000;21.380;2023-04-21T02:11:36;11.60;;;10.03;;
8550;SDS011;4313;42.000;21.380;2023-04-21T02:14:05;11.90;;;9.90;;
8550;SDS011;4313;42.000;21.380;2023-04-21T02:16:32;12.63;;;10.43;;
8550;SDS011;4313;42.000;21.380;2023-04-21T02:19:00;11.53;;;9.87;;
8550;SDS011;4313;42.000;21.380;2023-04-21T02:21:27;14.70;;;10.50;;
8550;SDS011;4313;42.000;21.380;2023-04-21T02:23:54;12.60;;;10.27;;
8550;SDS011;4313;42.000;21.380;2023-04-21T02:26:24;11.30;;;9.90;;
8550;SDS011;4313;42.000;21.380;2023-04-21T02:29:10;11.00;;;9.87;;
8550;SDS011;4313;42.000;21.380;2023-04-21T02:31:38;14.30;;;10.33;;
8550;SDS011;4313;42.000;21.380;2023-04-21T02:34:05;11.83;;;9.57;;
8550;SDS011;4313;42.000;21.380;2023-04-21T02:36:36;13.00;;;9.90;;
8550;SDS011;4313;42.000;21.380;2023-04-21T02:39:06;13.47;;;10.00;;
8550;SDS011;4313;42.000;21.380;2023-04-21T02:41:33;11.20;;;9.90;;
8550;SDS011;4313;42.000;21.380;2023-04-21T02:44:00;15.70;;;9.80;;
8550;SDS011;4313;42.000;21.380;2023-04-21T02:46:29;10.87;;;9.60;;
8550;SDS011;4313;42.000;21.380;2023-04-21T02:48:57;11.03;;;9.93;;
8550;SDS011;4313;42.000;21.380;2023-04-21T02:51:25;11.73;;;10.40;;
8550;SDS011;4313;42.000;21.380;2023-04-21T02:53:56;11.47;;;10.23;;
8550;SDS011;4313;42.000;21.380;2023-04-21T02:56:23;10.93;;;9.83;;
8550;SDS011;4313;42.000;21.380;2023-04-21T02:58:50;11.90;;;10.30;;
8550;SDS011;4313;42.000;21.380;2023-04-21T03:01:17;11.77;;;10.57;;
8550;SDS011;4313;42.000;21.380;2023-04-21T03:03:46;11.70;;;10.33;;
8550;SDS011;4313;42.000;21.380;2023-04-21T03:06:13;11.90;;;10.40;;
8550;SDS011;4313;42.000;21.380;2023-04-21T03:08:40;12.03;;;10.47;;
8550;SDS011;4313;42.000;21.380;2023-04-21T03:11:08;13.63;;;11.40;;
8550;SDS011;4313;42.000;21.380;2023-04-21T03:13:35;13.53;;;11.33;;
8550;SDS011;4313;42.000;21.380;2023-04-21T03:16:02;13.63;;;11.90;;
8550;SDS011;4313;42.000;21.380;2023-04-21T03:18:33;13.10;;;11.37;;
8550;SDS011;4313;42.000;21.380;2023-04-21T03:21:01;13.93;;;11.63;;
8550;SDS011;4313;42.000;21.380;2023-04-21T03:23:29;13.87;;;11.73;;
8550;SDS011;4313;42.000;21.380;2023-04-21T03:25:56;12.63;;;11.33;;
8550;SDS011;4313;42.000;21.380;2023-04-21T03:28:23;14.13;;;11.30;;
8550;SDS011;4313;42.000;21.380;2023-04-21T03:30:50;12.27;;;10.73;;
8550;SDS011;4313;42.000;21.380;2023-04-21T03:33:17;13.03;;;10.27;;
8550;SDS011;4313;42.000;21.380;2023-04-21T03:35:45;11.63;;;10.43;;
8550;SDS011;4313;42.000;21.380;2023-04-21T03:38:13;12.23;;;10.17;;
8550;SDS011;4313;42.000;21.380;2023-04-21T03:40:40;13.23;;;11.83;;
8550;SDS011;4313;42.000;21.380;2023-04-21T03:43:07;11.77;;;10.57;;
8550;SDS011;4313;42.000;21.380;2023-04-21T03:45:36;10.80;;;9.33;;
8550;SDS011;4313;42.000;21.380;2023-04-21T03:48:03;11.60;;;10.33;;
8550;SDS011;4313;42.000;21.380;2023-04-21T03:50:31;13.97;;;10.50;;
8550;SDS011;4313;42.000;21.380;2023-04-21T03:52:58;14.67;;;11.40;;
8550;SDS011;4313;42.000;21.380;2023-04-21T03:55:27;14.27;;;11.37;;
8550;SDS011;4313;42.000;21.380;2023-04-21T03:57:54;12.57;;;11.33;;
8550;SDS011;4313;42.000;21.380;2023-04-21T04:00:39;12.07;;;10.77;;
8550;SDS011;4313;42.000;21.380;2023-04-21T04:03:06;11.47;;;10.17;;
8550;SDS011;4313;42.000;21.380;2023-04-21T04:05:34;12.27;;;10.53;;
8550;SDS011;4313;42.000;21.380;2023-04-21T04:08:01;12.97;;;10.97;;
8550;SDS011;4313;42.000;21.380;2023-04-21T04:10:30;12.57;;;10.50;;
8550;SDS011;4313;42.000;21.380;2023-04-21T04:12:57;12.67;;;11.33;;
8550;SDS011;4313;42.000;21.380;2023-04-21T04:15:24;12.53;;;10.13;;
8550;SDS011;4313;42.000;21.380;2023-04-21T04:17:53;12.43;;;11.03;;
8550;SDS011;4313;42.000;21.380;2023-04-21T04:20:20;15.53;;;11.07;;
8550;SDS011;4313;42.000;21.380;2023-04-21T04:22:47;12.77;;;10.83;;
8550;SDS011;4313;42.000;21.380;2023-04-21T04:25:14;12.40;;;11.10;;
8550;SDS011;4313;42.000;21.380;2023-04-21T04:27:43;13.60;;;11.63;;
8550;SDS011;4313;42.000;21.380;2023-04-21T04:30:11;12.20;;;10.47;;
8550;SDS011;4313;42.000;21.380;2023-04-21T04:32:42;13.07;;;11.23;;
8550;SDS011;4313;42.000;21.380;2023-04-21T04:35:12;13.03;;;11.60;;
8550;SDS011;4313;42.000;21.380;2023-04-21T04:37:40;13.00;;;11.67;;
8550;SDS011;4313;42.000;21.380;2023-04-21T04:40:07;13.07;;;11.43;;
8550;SDS011;4313;42.000;21.380;2023-04-21T04:42:36;15.93;;;12.27;;
8550;SDS011;4313;42.000;21.380;2023-04-21T04:45:06;13.17;;;11.87;;
8550;SDS011;4313;42.000;21.380;2023-04-21T04:47:52;14.00;;;11.77;;
8550;SDS011;4313;42.000;21.380;2023-04-21T04:50:19;13.63;;;11.70;;
8550;SDS011;4313;42.000;21.380;2023-04-21T04:52:47;13.20;;;11.63;;
8550;SDS011;4313;42.000;21.380;2023-04-21T04:55:14;11.13;;;9.93;;
8550;SDS011;4313;42.000;21.380;2023-04-21T04:57:41;11.43;;;10.23;;
8550;SDS011;4313;42.000;21.380;2023-04-21T05:00:10;11.93;;;10.77;;
8550;SDS011;4313;42.000;21.380;2023-04-21T05:02:38;12.57;;;10.63;;
8550;SDS011;4313;42.000;21.380;2023-04-21T05:05:06;15.63;;;13.27;;
8550;SDS011;4313;42.000;21.380;2023-04-21T05:07:33;14.00;;;12.07;;
8550;SDS011;4313;42.000;21.380;2023-04-21T05:10:01;12.67;;;11.37;;
8550;SDS011;4313;42.000;21.380;2023-04-21T05:12:29;12.47;;;11.17;;
8550;SDS011;4313;42.000;21.380;2023-04-21T05:15:17;12.47;;;10.57;;
8550;SDS011;4313;42.000;21.380;2023-04-21T05:17:44;12.73;;;11.10;;
8550;SDS011;4313;42.000;21.380;2023-04-21T05:20:11;13.83;;;12.43;;
8550;SDS011;4313;42.000;21.380;2023-04-21T05:22:38;15.23;;;13.73;;
8550;SDS011;4313;42.000;21.380;2023-04-21T05:25:06;12.50;;;10.77;;
8550;SDS011;4313;42.000;21.380;2023-04-21T05:27:33;12.25;;;9.65;;
8550;SDS011;4313;42.000;21.380;2023-04-21T05:30:01;11.20;;;9.98;;
8550;SDS011;4313;42.000;21.380;2023-04-21T05:32:29;14.15;;;9.63;;
8550;SDS011;4313;42.000;21.380;2023-04-21T05:34:56;12.40;;;9.93;;
8550;SDS011;4313;42.000;21.380;2023-04-21T05:37:24;11.52;;;9.82;;
8550;SDS011;4313;42.000;21.380;2023-04-21T05:39:51;11.18;;;9.80;;
8550;SDS011;4313;42.000;21.380;2023-04-21T05:42:19;11.73;;;9.70;;
8550;SDS011;4313;42.000;21.380;2023-04-21T05:44:46;11.45;;;9.18;;
8550;SDS011;4313;42.000;21.380;2023-04-21T05:47:13;12.95;;;9.35;;
8550;SDS011;4313;42.000;21.380;2023-04-21T05:49:41;11.15;;;9.60;;
8550;SDS011;4313;42.000;21.380;2023-04-21T05:52:14;11.57;;;8.98;;
8550;SDS011;4313;42.000;21.380;2023-04-21T05:54:42;10.27;;;9.27;;
8550;SDS011;4313;42.000;21.380;2023-04-21T05:57:09;10.93;;;9.80;;
8550;SDS011;4313;42.000;21.380;2023-04-21T05:59:36;10.60;;;9.50;;
8550;SDS011;4313;42.000;21.380;2023-04-21T06:02:03;9.98;;;8.98;;
8550;SDS011;4313;42.000;21.380;2023-04-21T06:04:31;12.00;;;8.77;;
8550;SDS011;4313;42.000;21.380;2023-04-21T06:07:05;9.95;;;8.95;;
8550;SDS011;4313;42.000;21.380;2023-04-21T06:09:32;9.88;;;8.80;;
8550;SDS011;4313;42.000;21.380;2023-04-21T06:12:01;10.88;;;8.82;;
8550;SDS011;4313;42.000;21.380;2023-04-21T06:14:28;8.85;;;7.95;;
8550;SDS011;4313;42.000;21.380;2023-04-21T06:16:57;10.75;;;8.88;;
8550;SDS011;4313;42.000;21.380;2023-04-21T06:19:26;11.90;;;8.32;;
8550;SDS011;4313;42.000;21.380;2023-04-21T06:21:55;11.00;;;8.23;;
8550;SDS011;4313;42.000;21.380;2023-04-21T06:24:23;8.70;;;7.63;;
8550;SDS011;4313;42.000;21.380;2023-04-21T06:26:51;8.50;;;7.60;;
8550;SDS011;4313;42.000;21.380;2023-04-21T06:29:18;10.35;;;8.02;;
8550;SDS011;4313;42.000;21.380;2023-04-21T06:31:45;8.77;;;7.30;;
8550;SDS011;4313;42.000;21.380;2023-04-21T06:34:13;7.90;;;7.07;;
8550;SDS011;4313;42.000;21.380;2023-04-21T06:36:40;9.13;;;7.35;;
8550;SDS011;4313;42.000;21.380;2023-04-21T06:39:07;10.90;;;7.53;;
8550;SDS011;4313;42.000;21.380;2023-04-21T06:41:35;9.38;;;7.15;;
8550;SDS011;4313;42.000;21.380;2023-04-21T06:44:03;10.57;;;7.25;;
8550;SDS011;4313;42.000;21.380;2023-04-21T06:46:30;10.30;;;7.15;;
8550;SDS011;4313;42.000;21.380;2023-04-21T06:48:57;10.05;;;7.18;;
8550;SDS011;4313;42.000;21.380;2023-04-21T06:51:24;11.18;;;7.70;;
8550;SDS011;4313;42.000;21.380;2023-04-21T06:53:51;11.43;;;7.03;;
8550;SDS011;4313;42.000;21.380;2023-04-21T06:56:18;9.30;;;7.03;;
8550;SDS011;4313;42.000;21.380;2023-04-21T06:58:47;9.68;;;7.55;;
8550;SDS011;4313;42.000;21.380;2023-04-21T07:01:14;11.30;;;7.70;;
8550;SDS011;4313;42.000;21.380;2023-04-21T07:03:41;13.73;;;8.02;;
8550;SDS011;4313;42.000;21.380;2023-04-21T07:06:08;8.40;;;7.30;;
8550;SDS011;4313;42.000;21.380;2023-04-21T07:08:36;10.23;;;7.35;;
8550;SDS011;4313;42.000;21.380;2023-04-21T07:11:03;10.18;;;7.43;;
8550;SDS011;4313;42.000;21.380;2023-04-21T07:13:30;9.20;;;7.60;;
8550;SDS011;4313;42.000;21.380;2023-04-21T07:15:59;9.40;;;7.40;;
8550;SDS011;4313;42.000;21.380;2023-04-21T07:18:26;9.32;;;8.10;;
8550;SDS011;4313;42.000;21.380;2023-04-21T07:20:53;10.50;;;7.80;;
8550;SDS011;4313;42.000;21.380;2023-04-21T07:23:20;10.75;;;7.82;;
8550;SDS011;4313;42.000;21.380;2023-04-21T07:26:05;9.13;;;7.72;;
8550;SDS011;4313;42.000;21.380;2023-04-21T07:28:33;10.50;;;7.80;;
8550;SDS011;4313;42.000;21.380;2023-04-21T07:31:01;8.80;;;7.57;;
8550;SDS011;4313;42.000;21.380;2023-04-21T07:33:28;9.02;;;6.85;;
8550;SDS011;4313;42.000;21.380;2023-04-21T07:35:56;11.70;;;7.72;;
8550;SDS011;4313;42.000;21.380;2023-04-21T07:38:23;10.23;;;7.55;;
8550;SDS011;4313;42.000;21.380;2023-04-21T07:40:50;11.02;;;7.57;;
8550;SDS011;4313;42.000;21.380;2023-04-21T07:43:17;11.23;;;7.82;;
8550;SDS011;4313;42.000;21.380;2023-04-21T07:45:45;15.18;;;7.30;;
8550;SDS011;4313;42.000;21.380;2023-04-21T07:48:13;10.40;;;8.13;;
8550;SDS011;4313;42.000;21.380;2023-04-21T07:50:40;9.43;;;7.43;;
8550;SDS011;4313;42.000;21.380;2023-04-21T07:53:07;9.65;;;7.32;;
8550;SDS011;4313;42.000;21.380;2023-04-21T07:55:34;11.13;;;8.07;;
8550;SDS011;4313;42.000;21.380;2023-04-21T07:58:02;9.32;;;7.63;;
8550;SDS011;4313;42.000;21.380;2023-04-21T08:00:32;8.77;;;7.25;;
8550;SDS011;4313;42.000;21.380;2023-04-21T08:03:02;13.18;;;7.78;;
8550;SDS011;4313;42.000;21.380;2023-04-21T08:05:30;8.52;;;7.53;;
8550;SDS011;4313;42.000;21.380;2023-04-21T08:07:57;11.70;;;7.80;;
8550;SDS011;4313;42.000;21.380;2023-04-21T08:10:43;10.23;;;8.07;;
8550;SDS011;4313;42.000;21.380;2023-04-21T08:13:10;10.65;;;7.50;;
8550;SDS011;4313;42.000;21.380;2023-04-21T08:15:40;9.75;;;7.63;;
8550;SDS011;4313;42.000;21.380;2023-04-21T08:18:26;9.85;;;7.15;;
8550;SDS011;4313;42.000;21.380;2023-04-21T08:20:54;8.80;;;7.15;;
8550;SDS011;4313;42.000;21.380;2023-04-21T08:23:22;8.85;;;7.32;;
8550;SDS011;4313;42.000;21.380;2023-04-21T08:25:49;9.55;;;6.30;;
8550;SDS011;4313;42.000;21.380;2023-04-21T08:28:16;8.65;;;7.55;;
8550;SDS011;4313;42.000;21.380;2023-04-21T08:30:43;9.15;;;6.45;;
8550;SDS011;4313;42.000;21.380;2023-04-21T08:33:10;7.85;;;6.03;;
8550;SDS011;4313;42.000;21.380;2023-04-21T08:35:38;10.90;;;7.07;;
8550;SDS011;4313;42.000;21.380;2023-04-21T08:38:07;9.52;;;7.72;;
8550;SDS011;4313;42.000;21.380;2023-04-21T08:40:35;9.38;;;6.90;;
8550;SDS011;4313;42.000;21.380;2023-04-21T08:43:03;9.60;;;7.15;;
8550;SDS011;4313;42.000;21.380;2023-04-21T08:45:31;10.77;;;7.95;;
8550;SDS011;4313;42.000;21.380;2023-04-21T08:47:59;10.15;;;6.75;;
8550;SDS011;4313;42.000;21.380;2023-04-21T08:50:27;12.18;;;6.40;;
8550;SDS011;4313;42.000;21.380;2023-04-21T08:52:55;7.53;;;5.57;;
8550;SDS011;4313;42.000;21.380;2023-04-21T08:55:25;8.20;;;6.25;;
8550;SDS011;4313;42.000;21.380;2023-04-21T08:57:54;10.32;;;6.93;;
8550;SDS011;4313;42.000;21.380;2023-04-21T09:00:21;11.07;;;6.60;;
8550;SDS011;4313;42.000;21.380;2023-04-21T09:02:52;9.07;;;6.50;;
8550;SDS011;4313;42.000;21.380;2023-04-21T09:05:21;8.60;;;6.55;;
8550;SDS011;4313;42.000;21.380;2023-04-21T09:07:50;8.20;;;6.90;;
8550;SDS011;4313;42.000;21.380;2023-04-21T09:10:21;8.77;;;6.68;;
8550;SDS011;4313;42.000;21.380;2023-04-21T09:12:50;8.00;;;6.68;;
8550;SDS011;4313;42.000;21.380;2023-04-21T09:15:19;7.30;;;5.88;;
8550;SDS011;4313;42.000;21.380;2023-04-21T09:17:53;8.48;;;5.90;;
8550;SDS011;4313;42.000;21.380;2023-04-21T09:20:21;9.48;;;6.72;;
8550;SDS011;4313;42.000;21.380;2023-04-21T09:22:49;8.82;;;6.10;;
8550;SDS011;4313;42.000;21.380;2023-04-21T09:25:18;10.18;;;6.65;;
8550;SDS011;4313;42.000;21.380;2023-04-21T09:27:48;9.77;;;6.68;;
8550;SDS011;4313;42.000;21.380;2023-04-21T09:30:19;8.10;;;6.10;;
8550;SDS011;4313;42.000;21.380;2023-04-21T09:32:47;8.45;;;6.03;;
8550;SDS011;4313;42.000;21.380;2023-04-21T09:35:14;8.25;;;6.00;;
8550;SDS011;4313;42.000;21.380;2023-04-21T09:37:42;7.53;;;6.32;;
8550;SDS011;4313;42.000;21.380;2023-04-21T09:40:12;10.23;;;6.18;;
8550;SDS011;4313;42.000;21.380;2023-04-21T09:42:40;7.20;;;5.88;;
8550;SDS011;4313;42.000;21.380;2023-04-21T09:45:14;8.95;;;6.50;;
8550;SDS011;4313;42.000;21.380;2023-04-21T09:47:43;6.50;;;5.78;;
8550;SDS011;4313;42.000;21.380;2023-04-21T09:50:15;6.88;;;6.18;;
8550;SDS011;4313;42.000;21.380;2023-04-21T09:52:46;7.10;;;6.15;;
8550;SDS011;4313;42.000;21.380;2023-04-21T09:55:17;6.70;;;6.10;;
8550;SDS011;4313;42.000;21.380;2023-04-21T09:57:45;8.40;;;5.80;;
8550;SDS011;4313;42.000;21.380;2023-04-21T10:00:14;6.57;;;5.85;;
8550;SDS011;4313;42.000;21.380;2023-04-21T10:02:43;6.22;;;5.63;;
8550;SDS011;4313;42.000;21.380;2023-04-21T10:05:14;6.50;;;5.50;;
8550;SDS011;4313;42.000;21.380;2023-04-21T10:07:41;6.43;;;5.75;;
8550;SDS011;4313;42.000;21.380;2023-04-21T10:10:11;6.70;;;5.80;;
8550;SDS011;4313;42.000;21.380;2023-04-21T10:12:42;6.95;;;6.32;;
8550;SDS011;4313;42.000;21.380;2023-04-21T10:18:11;7.40;;;5.90;;
8550;SDS011;4313;42.000;21.380;2023-04-21T10:20:52;5.90;;;5.30;;
8550;SDS011;4313;42.000;21.380;2023-04-21T10:23:26;6.07;;;5.30;;
8550;SDS011;4313;42.000;21.380;2023-04-21T10:26:01;7.68;;;6.15;;
8550;SDS011;4313;42.000;21.380;2023-04-21T10:28:41;6.38;;;5.35;;
8550;SDS011;4313;42.000;21.380;2023-04-21T10:31:19;7.60;;;5.80;;
8550;SDS011;4313;42.000;21.380;2023-04-21T10:42:21;6.13;;;5.47;;
8550;SDS011;4313;42.000;21.380;2023-04-21T10:44:50;9.80;;;5.72;;
8550;SDS011;4313;42.000;21.380;2023-04-21T10:47:26;6.93;;;5.80;;
8550;SDS011;4313;42.000;21.380;2023-04-21T10:49:56;6.57;;;5.65;;
8550;SDS011;4313;42.000;21.380;2023-04-21T10:52:29;6.07;;;5.07;;
8550;SDS011;4313;42.000;21.380;2023-04-21T10:55:04;6.53;;;5.28;;
8550;SDS011;4313;42.000;21.380;2023-04-21T10:57:33;6.35;;;5.50;;
8550;SDS011;4313;42.000;21.380;2023-04-21T11:00:01;6.95;;;5.78;;
8550;SDS011;4313;42.000;21.380;2023-04-21T11:02:31;7.15;;;5.63;;
8550;SDS011;4313;42.000;21.380;2023-04-21T11:05:00;7.30;;;6.10;;
8550;SDS011;4313;42.000;21.380;2023-04-21T11:07:31;7.43;;;6.03;;
8550;SDS011;4313;42.000;21.380;2023-04-21T11:09:58;8.88;;;6.03;;
8550;SDS011;4313;42.000;21.380;2023-04-21T11:12:26;7.07;;;5.90;;
8550;SDS011;4313;42.000;21.380;2023-04-21T11:14:55;6.90;;;6.20;;
8550;SDS011;4313;42.000;21.380;2023-04-21T11:17:23;9.63;;;6.05;;
8550;SDS011;4313;42.000;21.380;2023-04-21T11:19:51;7.70;;;6.00;;
8550;SDS011;4313;42.000;21.380;2023-04-21T11:22:21;8.88;;;6.22;;
8550;SDS011;4313;42.000;21.380;2023-04-21T11:24:49;6.18;;;5.55;;
8550;SDS011;4313;42.000;21.380;2023-04-21T11:27:18;8.02;;;6.40;;
8550;SDS011;4313;42.000;21.380;2023-04-21T11:29:46;7.75;;;5.20;;
8550;SDS011;4313;42.000;21.380;2023-04-21T11:32:14;5.93;;;5.32;;
8550;SDS011;4313;42.000;21.380;2023-04-21T11:34:43;6.18;;;5.47;;
8550;SDS011;4313;42.000;21.380;2023-04-21T11:37:13;6.35;;;5.60;;
8550;SDS011;4313;42.000;21.380;2023-04-21T11:39:43;5.72;;;5.20;;
8550;SDS011;4313;42.000;21.380;2023-04-21T11:42:10;6.50;;;5.78;;
8550;SDS011;4313;42.000;21.380;2023-04-21T11:44:38;5.57;;;5.07;;
8550;SDS011;4313;42.000;21.380;2023-04-21T11:47:13;5.70;;;5.10;;
8550;SDS011;4313;42.000;21.380;2023-04-21T11:49:44;6.80;;;5.35;;
8550;SDS011;4313;42.000;21.380;2023-04-21T11:52:22;6.25;;;5.05;;
8550;SDS011;4313;42.000;21.380;2023-04-21T11:54:58;6.85;;;5.40;;
8550;SDS011;4313;42.000;21.380;2023-04-21T11:57:27;10.93;;;6.30;;
8550;SDS011;4313;42.000;21.380;2023-04-21T11:59:57;6.75;;;6.05;;
8550;SDS011;4313;42.000;21.380;2023-04-21T12:02:24;6.82;;;6.18;;
8550;SDS011;4313;42.000;21.380;2023-04-21T12:04:59;7.00;;;6.30;;
8550;SDS011;4313;42.000;21.380;2023-04-21T12:07:28;7.10;;;6.40;;
8550;SDS011;4313;42.000;21.380;2023-04-21T12:09:58;7.50;;;6.10;;
8550;SDS011;4313;42.000;21.380;2023-04-21T12:12:30;7.07;;;6.05;;
8550;SDS011;4313;42.000;21.380;2023-04-21T12:14:57;8.27;;;5.47;;
8550;SDS011;4313;42.000;21.380;2023-04-21T12:17:33;7.13;;;6.32;;
8550;SDS011;4313;42.000;21.380;2023-04-21T12:20:03;7.13;;;6.43;;
8550;SDS011;4313;42.000;21.380;2023-04-21T12:22:31;7.90;;;7.10;;
8550;SDS011;4313;42.000;21.380;2023-04-21T12:25:00;9.13;;;6.72;;
8550;SDS011;4313;42.000;21.380;2023-04-21T12:27:27;7.13;;;6.40;;
8550;SDS011;4313;42.000;21.380;2023-04-21T12:29:55;10.55;;;7.10;;
8550;SDS011;4313;42.000;21.380;2023-04-21T12:32:22;8.73;;;6.65;;
8550;SDS011;4313;42.000;21.380;2023-04-21T12:34:50;6.90;;;6.20;;
8550;SDS011;4313;42.000;21.380;2023-04-21T12:37:17;7.43;;;6.13;;
8550;SDS011;4313;42.000;21.380;2023-04-21T12:39:44;6.80;;;6.10;;
8550;SDS011;4313;42.000;21.380;2023-04-21T12:42:12;8.88;;;7.28;;
8550;SDS011;4313;42.000;21.380;2023-04-21T12:44:40;7.32;;;6.63;;
8550;SDS011;4313;42.000;21.380;2023-04-21T12:47:07;7.00;;;6.30;;
8550;SDS011;4313;42.000;21.380;2023-04-21T12:49:35;7.38;;;5.70;;
8550;SDS011;4313;42.000;21.380;2023-04-21T12:52:04;7.10;;;5.93;;
8550;SDS011;4313;42.000;21.380;2023-04-21T12:54:33;6.88;;;6.15;;
8550;SDS011;4313;42.000;21.380;2023-04-21T12:57:00;6.32;;;5.72;;
8550;SDS011;4313;42.000;21.380;2023-04-21T12:59:31;6.93;;;5.82;;
8550;SDS011;4313;42.000;21.380;2023-04-21T13:01:58;6.97;;;6.20;;
8550;SDS011;4313;42.000;21.380;2023-04-21T13:04:25;6.80;;;6.10;;
8550;SDS011;4313;42.000;21.380;2023-04-21T13:06:52;7.20;;;6.50;;
8550;SDS011;4313;42.000;21.380;2023-04-21T13:09:19;8.02;;;6.53;;
8550;SDS011;4313;42.000;21.380;2023-04-21T13:11:46;7.78;;;6.30;;
8550;SDS011;4313;42.000;21.380;2023-04-21T13:14:15;8.52;;;5.93;;
8550;SDS011;4313;42.000;21.380;2023-04-21T13:16:43;8.07;;;6.05;;
8550;SDS011;4313;42.000;21.380;2023-04-21T13:19:10;7.30;;;6.50;;
8550;SDS011;4313;42.000;21.380;2023-04-21T13:21:38;6.70;;;6.10;;
8550;SDS011;4313;42.000;21.380;2023-04-21T13:24:05;7.75;;;6.10;;
8550;SDS011;4313;42.000;21.380;2023-04-21T13:26:32;7.60;;;6.22;;
8550;SDS011;4313;42.000;21.380;2023-04-21T13:29:00;7.68;;;6.88;;
8550;SDS011;4313;42.000;21.380;2023-04-21T13:31:28;6.93;;;6.00;;
8550;SDS011;4313;42.000;21.380;2023-04-21T13:33:57;8.10;;;6.68;;
8550;SDS011;4313;42.000;21.380;2023-04-21T13:36:27;7.03;;;6.18;;
8550;SDS011;4313;42.000;21.380;2023-04-21T13:38:55;8.85;;;6.55;;
8550;SDS011;4313;42.000;21.380;2023-04-21T13:41:25;8.20;;;5.93;;
8550;SDS011;4313;42.000;21.380;2023-04-21T13:43:52;6.68;;;5.80;;
8550;SDS011;4313;42.000;21.380;2023-04-21T13:46:19;7.97;;;5.68;;
8550;SDS011;4313;42.000;21.380;2023-04-21T13:48:46;7.00;;;6.07;;
8550;SDS011;4313;42.000;21.380;2023-04-21T13:51:16;6.80;;;5.88;;
8550;SDS011;4313;42.000;21.380;2023-04-21T13:53:44;9.30;;;6.50;;
8550;SDS011;4313;42.000;21.380;2023-04-21T13:56:11;6.95;;;6.20;;
8550;SDS011;4313;42.000;21.380;2023-04-21T13:58:38;7.80;;;6.63;;
8550;SDS011;4313;42.000;21.380;2023-04-21T14:01:05;6.63;;;5.80;;
8550;SDS011;4313;42.000;21.380;2023-04-21T14:03:32;11.32;;;6.97;;
8550;SDS011;4313;42.000;21.380;2023-04-21T14:05:59;7.88;;;6.50;;
8550;SDS011;4313;42.000;21.380;2023-04-21T14:08:28;7.65;;;6.00;;
8550;SDS011;4313;42.000;21.380;2023-04-21T14:10:56;9.05;;;5.53;;
8550;SDS011;4313;42.000;21.380;2023-04-21T14:13:23;5.95;;;4.95;;
8550;SDS011;4313;42.000;21.380;2023-04-21T14:15:53;6.80;;;5.50;;
8550;SDS011;4313;42.000;21.380;2023-04-21T14:18:20;7.93;;;5.53;;
8550;SDS011;4313;42.000;21.380;2023-04-21T14:20:47;78.93;;;9.75;;
8550;SDS011;4313;42.000;21.380;2023-04-21T14:23:14;5.97;;;5.38;;
8550;SDS011;4313;42.000;21.380;2023-04-21T14:25:43;6.35;;;5.30;;
8550;SDS011;4313;42.000;21.380;2023-04-21T14:28:10;7.63;;;5.60;;
8550;SDS011;4313;42.000;21.380;2023-04-21T14:30:37;5.88;;;5.30;;
8550;SDS011;4313;42.000;21.380;2023-04-21T14:33:06;6.05;;;5.45;;
8550;SDS011;4313;42.000;21.380;2023-04-21T14:35:34;7.22;;;5.65;;
8550;SDS011;4313;42.000;21.380;2023-04-21T14:38:01;6.45;;;5.40;;
8550;SDS011;4313;42.000;21.380;2023-04-21T14:40:29;7.93;;;5.78;;
8550;SDS011;4313;42.000;21.380;2023-04-21T14:42:57;7.60;;;6.00;;
8550;SDS011;4313;42.000;21.380;2023-04-21T14:45:27;8.63;;;6.07;;
8550;SDS011;4313;42.000;21.380;2023-04-21T14:47:54;7.05;;;6.35;;
8550;SDS011;4313;42.000;21.380;2023-04-21T14:50:21;7.65;;;6.30;;
8550;SDS011;4313;42.000;21.380;2023-04-21T14:52:48;7.18;;;6.10;;
8550;SDS011;4313;42.000;21.380;2023-04-21T14:55:16;7.45;;;5.80;;
8550;SDS011;4313;42.000;21.380;2023-04-21T14:57:43;8.40;;;5.47;;
8550;SDS011;4313;42.000;21.380;2023-04-21T15:00:13;9.35;;;5.93;;
8550;SDS011;4313;42.000;21.380;2023-04-21T15:02:40;7.35;;;6.65;;
8550;SDS011;4313;42.000;21.380;2023-04-21T15:05:08;9.55;;;5.85;;
8550;SDS011;4313;42.000;21.380;2023-04-21T15:07:37;8.00;;;6.43;;
8550;SDS011;4313;42.000;21.380;2023-04-21T15:10:05;7.68;;;6.20;;
8550;SDS011;4313;42.000;21.380;2023-04-21T15:12:33;8.95;;;6.75;;